Time;durP1;ratioP1;P1;durP2;ratioP2;P2;SDS_P1;SDS_P2;PMS_P1;PMS_P2;Temp;Humidity;BMP_temperature;BMP_pressure;BME280_temperature;BME280_humidity;BME280_pressure;Samples;Min_cycle;Max_cycle;Signal;HPM_P1;HPM_P2
2023/02/20 00:00:39;;;;;;;;;;;;;;;4.93;100.00;-18160.63;5012445;28;19917;-83
2023/02/20 00:03:05;;;;;;;;;;;;;;;4.94;100.00;-18160.91;4997689;28;19921;-83
2023/02/20 00:05:30;;;;;;;;;;;;;;;4.96;100.00;-18161.47;4992731;28;19918;-83
2023/02/20 00:07:55;;;;;;;;;;;;;;;5.01;100.00;-18162.84;5006984;28;19925;-82
2023/02/20 00:10:21;;;;;;;;;;;;;;;5.02;100.00;-18163.13;5011059;28;20620;-81
2023/02/20 00:12:46;;;;;;;;;;;;;;;4.98;100.00;-18162.16;4997028;28;19968;-83
2023/02/20 00:15:14;;;;;;;;;;;;;;;4.95;100.00;-18161.19;4992411;28;19924;-81
2023/02/20 00:17:41;;;;;;;;;;;;;;;4.98;100.00;-18162.03;5005791;28;19928;-85
2023/02/20 00:20:06;;;;;;;;;;;;;;;4.97;100.00;-18161.88;4995382;28;19924;-82
2023/02/20 00:22:31;;;;;;;;;;;;;;;5.01;100.00;-18162.72;5006811;28;19917;-83
2023/02/20 00:24:57;;;;;;;;;;;;;;;4.96;100.00;-18161.47;5006339;28;19925;-84
2023/02/20 00:27:22;;;;;;;;;;;;;;;4.90;100.00;-18159.94;5006319;28;20008;-84
2023/02/20 00:29:47;;;;;;;;;;;;;;;4.83;100.00;-18158.00;5011419;28;19960;-83
2023/02/20 00:32:13;;;;;;;;;;;;;;;4.86;100.00;-18158.69;5004413;28;19925;-82
2023/02/20 00:34:38;;;;;;;;;;;;;;;4.86;100.00;-18158.84;5012386;28;20005;-84
2023/02/20 00:37:03;;;;;;;;;;;;;;;4.85;100.00;-18158.44;5011570;28;19983;-82
2023/02/20 00:39:30;;;;;;;;;;;;;;;4.86;100.00;-18158.84;5003544;28;19922;-83
2023/02/20 00:41:56;;;;;;;;;;;;;;;4.86;100.00;-18158.69;5010248;28;20012;-82
2023/02/20 00:44:21;;;;;;;;;;;;;;;4.87;100.00;-18158.97;5003108;28;19925;-83
2023/02/20 00:46:46;;;;;;;;;;;;;;;4.83;100.00;-18157.88;5010006;28;19918;-84
2023/02/20 00:49:12;;;;;;;;;;;;;;;4.88;100.00;-18159.38;4999614;28;19917;-84
2023/02/20 00:51:37;;;;;;;;;;;;;;;4.86;100.00;-18158.69;4995870;28;19922;-83
2023/02/20 00:54:02;;;;;;;;;;;;;;;4.85;100.00;-18158.56;4996332;28;19917;-84
2023/02/20 00:56:28;;;;;;;;;;;;;;;4.90;100.00;-18159.81;5010029;28;19917;-84
2023/02/20 00:58:53;;;;;;;;;;;;;;;4.89;100.00;-18159.66;5000119;28;20479;-82
2023/02/20 01:01:18;;;;;;;;;;;;;;;4.94;100.00;-18161.03;5011463;28;19925;-85
2023/02/20 01:03:44;;;;;;;;;;;;;;;5.01;100.00;-18162.84;5012842;28;19924;-82
2023/02/20 01:06:09;;;;;;;;;;;;;;;4.99;100.00;-18162.28;5011650;28;19921;-85
2023/02/20 01:08:35;;;;;;;;;;;;;;;5.01;100.00;-18162.84;5019546;28;20522;-83
2023/02/20 01:11:00;;;;;;;;;;;;;;;5.06;100.00;-18164.22;4998808;28;20005;-83
2023/02/20 01:13:25;;;;;;;;;;;;;;;5.08;100.00;-18164.78;5006003;28;19957;-84
2023/02/20 01:15:51;;;;;;;;;;;;;;;5.04;100.00;-18163.53;5002079;28;19932;-82
2023/02/20 01:18:16;;;;;;;;;;;;;;;5.06;100.00;-18164.09;5001127;28;19922;-82
2023/02/20 01:20:41;;;;;;;;;;;;;;;5.00;100.00;-18162.56;5005296;28;19925;-83
2023/02/20 01:23:06;;;;;;;;;;;;;;;4.99;100.00;-18162.28;5002956;28;19980;-84
2023/02/20 01:25:32;;;;;;;;;;;;;;;4.99;100.00;-18162.28;5000842;28;19921;-84
2023/02/20 01:27:57;;;;;;;;;;;;;;;4.98;100.00;-18162.03;5002966;28;19961;-83
2023/02/20 01:30:22;;;;;;;;;;;;;;;5.01;100.00;-18162.72;5003439;28;19922;-83
2023/02/20 01:32:47;;;;;;;;;;;;;;;5.00;100.00;-18162.56;5008671;28;19918;-83
2023/02/20 01:35:13;;;;;;;;;;;;;;;4.94;100.00;-18161.03;5006958;28;20654;-83
2023/02/20 01:37:38;;;;;;;;;;;;;;;4.98;100.00;-18162.03;5008291;28;19925;-83
2023/02/20 01:40:04;;;;;;;;;;;;;;;5.02;100.00;-18162.97;5007662;28;19917;-83
2023/02/20 01:42:32;;;;;;;;;;;;;;;4.99;100.00;-18162.28;5003374;28;19924;-83
2023/02/20 01:45:16;;;;;;;;;;;;;;;5.03;100.00;-18163.41;5003971;28;19928;-83
2023/02/20 01:47:41;;;;;;;;;;;;;;;5.03;100.00;-18163.25;5015596;28;19921;-83
2023/02/20 01:50:08;;;;;;;;;;;;;;;5.02;100.00;-18163.13;5005596;28;19925;-83
2023/02/20 01:52:34;;;;;;;;;;;;;;;5.01;100.00;-18162.72;5008569;28;19976;-81
2023/02/20 01:55:05;;;;;;;;;;;;;;;4.98;100.00;-18162.16;5000314;28;19960;-84
2023/02/20 01:57:31;;;;;;;;;;;;;;;5.03;100.00;-18163.25;5002793;28;20412;-84
2023/02/20 02:00:01;;;;;;;;;;;;;;;5.00;100.00;-18162.44;4998251;28;19925;-83
2023/02/20 02:02:29;;;;;;;;;;;;;;;5.02;100.00;-18162.97;5002266;28;19957;-83
2023/02/20 02:04:55;;;;;;;;;;;;;;;5.04;100.00;-18163.53;5002683;28;19925;-83
2023/02/20 02:07:20;;;;;;;;;;;;;;;5.03;100.00;-18163.41;4998312;28;19987;-83
2023/02/20 02:09:54;;;;;;;;;;;;;;;5.01;100.00;-18162.84;5000462;28;19957;-83
2023/02/20 02:12:21;;;;;;;;;;;;;;;5.02;100.00;-18163.13;4997658;28;19948;-83
2023/02/20 02:14:46;;;;;;;;;;;;;;;5.01;100.00;-18162.84;5003803;28;19969;-83
2023/02/20 02:17:24;;;;;;;;;;;;;;;4.98;100.00;-18162.16;5001203;28;19929;-82
2023/02/20 02:20:08;;;;;;;;;;;;;;;5.01;100.00;-18162.72;5002281;28;19921;-82
2023/02/20 02:22:52;;;;;;;;;;;;;;;5.05;100.00;-18163.94;5012567;28;20017;-83
2023/02/20 02:25:24;;;;;;;;;;;;;;;5.01;100.00;-18162.72;5007135;28;19949;-82
2023/02/20 02:28:09;;;;;;;;;;;;;;;5.01;100.00;-18162.84;5006054;28;19918;-84
2023/02/20 02:30:53;;;;;;;;;;;;;;;5.03;100.00;-18163.41;4996296;28;19921;-81
2023/02/20 02:33:28;;;;;;;;;;;;;;;5.00;100.00;-18162.56;5006569;28;19960;-83
2023/02/20 02:36:11;;;;;;;;;;;;;;;4.99;100.00;-18162.28;5004636;28;19925;-83
2023/02/20 02:38:55;;;;;;;;;;;;;;;4.98;100.00;-18162.16;5013851;28;20036;-83
2023/02/20 02:41:20;;;;;;;;;;;;;;;4.97;100.00;-18161.75;5004478;28;20438;-82
2023/02/20 02:43:56;;;;;;;;;;;;;;;5.01;100.00;-18162.72;5006339;28;19921;-83
2023/02/20 02:46:26;;;;;;;;;;;;;;;4.99;100.00;-18162.28;5002249;28;19933;-81
2023/02/20 02:48:55;;;;;;;;;;;;;;;4.96;100.00;-18161.47;5005820;28;19932;-84
2023/02/20 02:51:24;;;;;;;;;;;;;;;4.96;100.00;-18161.59;5000608;28;19922;-81
2023/02/20 02:54:04;;;;;;;;;;;;;;;4.93;100.00;-18160.78;5003525;28;20147;-82
2023/02/20 02:56:36;;;;;;;;;;;;;;;4.93;100.00;-18160.63;5002098;28;19924;-83
2023/02/20 02:59:03;;;;;;;;;;;;;;;4.92;100.00;-18160.34;5010848;28;20375;-84
2023/02/20 03:01:30;;;;;;;;;;;;;;;4.90;100.00;-18159.81;5007199;28;19947;-84
2023/02/20 03:03:56;;;;;;;;;;;;;;;4.91;100.00;-18160.09;5006806;28;19932;-83
2023/02/20 03:06:29;;;;;;;;;;;;;;;4.88;100.00;-18159.25;5002242;28;19937;-82
2023/02/20 03:08:56;;;;;;;;;;;;;;;4.88;100.00;-18159.25;5002533;28;19918;-82
2023/02/20 03:11:22;;;;;;;;;;;;;;;4.88;100.00;-18159.25;4998779;28;20069;-82
2023/02/20 03:17:16;;;;;;;;;;;;;;;4.86;100.00;-18158.84;5015933;28;19964;-82
2023/02/20 03:19:42;;;;;;;;;;;;;;;4.91;100.00;-18160.09;4984634;28;20392;-81
2023/02/20 03:22:22;;;;;;;;;;;;;;;4.87;100.00;-18158.97;4996295;28;20013;-82
2023/02/20 03:24:56;;;;;;;;;;;;;;;4.89;100.00;-18159.53;4993075;28;20108;-82
2023/02/20 03:27:28;;;;;;;;;;;;;;;4.89;100.00;-18159.53;5002420;28;19924;-81
2023/02/20 03:29:56;;;;;;;;;;;;;;;4.89;100.00;-18159.66;4999894;28;19968;-84
2023/02/20 03:43:20;;;;;;;;;;;;;;;4.94;100.00;-18160.91;4995029;28;19952;-84
2023/02/20 03:45:46;;;;;;;;;;;;;;;4.89;100.00;-18159.66;5001055;28;19956;-83
2023/02/20 03:48:32;;;;;;;;;;;;;;;4.92;100.00;-18160.50;5020869;28;19925;-85
2023/02/20 03:53:42;;;;;;;;;;;;;;;4.92;100.00;-18160.50;5003824;28;19928;-84
2023/02/20 03:56:09;;;;;;;;;;;;;;;4.93;100.00;-18160.78;5009702;28;20012;-83
2023/02/20 03:58:37;;;;;;;;;;;;;;;4.95;100.00;-18161.19;5008087;28;20471;-84
2023/02/20 04:01:04;;;;;;;;;;;;;;;4.96;100.00;-18161.59;5006522;28;19967;-84
2023/02/20 04:03:33;;;;;;;;;;;;;;;4.96;100.00;-18161.47;5005063;28;19926;-83
2023/02/20 04:05:59;;;;;;;;;;;;;;;4.99;100.00;-18162.28;5001538;28;19921;-82
2023/02/20 04:08:34;;;;;;;;;;;;;;;5.01;100.00;-18162.72;5007877;28;19918;-82
2023/02/20 04:11:00;;;;;;;;;;;;;;;5.01;100.00;-18162.84;5007735;28;19929;-84
2023/02/20 04:13:25;;;;;;;;;;;;;;;5.03;100.00;-18163.25;5009195;28;19917;-82
2023/02/20 04:15:51;;;;;;;;;;;;;;;5.04;100.00;-18163.53;5001548;28;20346;-81
2023/02/20 04:18:18;;;;;;;;;;;;;;;5.06;100.00;-18164.09;5005274;28;19918;-82
2023/02/20 04:20:52;;;;;;;;;;;;;;;5.07;100.00;-18164.50;5005246;28;19990;-83
2023/02/20 04:23:18;;;;;;;;;;;;;;;5.08;100.00;-18164.78;5006750;28;19938;-82
2023/02/20 04:25:45;;;;;;;;;;;;;;;5.09;100.00;-18165.06;5006853;28;19921;-83
2023/02/20 04:28:11;;;;;;;;;;;;;;;5.12;100.00;-18165.75;5003906;28;21007;-81
2023/02/20 04:30:37;;;;;;;;;;;;;;;5.15;100.00;-18166.56;5006897;28;19922;-79
2023/02/20 04:33:02;;;;;;;;;;;;;;;5.17;100.00;-18167.13;5006985;28;20529;-83
2023/02/20 04:35:27;;;;;;;;;;;;;;;5.18;100.00;-18167.53;4999882;28;19921;-82
2023/02/20 04:37:53;;;;;;;;;;;;;;;5.20;100.00;-18167.94;5012872;28;20414;-82
2023/02/20 04:40:19;;;;;;;;;;;;;;;5.22;100.00;-18168.50;5004873;28;19917;-80
2023/02/20 04:42:45;;;;;;;;;;;;;;;5.24;100.00;-18168.91;5008035;28;19928;-81
2023/02/20 04:45:10;;;;;;;;;;;;;;;5.23;100.00;-18168.78;5003310;28;21069;-84
2023/02/20 04:47:35;;;;;;;;;;;;;;;5.26;100.00;-18169.47;5008596;28;19918;-83
2023/02/20 04:50:01;;;;;;;;;;;;;;;5.27;100.00;-18169.75;5006385;28;20292;-83
2023/02/20 04:52:26;;;;;;;;;;;;;;;5.29;100.00;-18170.28;5004300;28;19922;-84
2023/02/20 04:54:51;;;;;;;;;;;;;;;5.26;100.00;-18169.59;5004925;28;19917;-81
2023/02/20 04:57:17;;;;;;;;;;;;;;;5.28;100.00;-18170.03;5007007;28;19975;-81
2023/02/20 04:59:43;;;;;;;;;;;;;;;5.29;100.00;-18170.28;5012286;28;19921;-81
2023/02/20 05:02:08;;;;;;;;;;;;;;;5.32;100.00;-18171.25;5004349;28;20327;-79
2023/02/20 05:04:34;;;;;;;;;;;;;;;5.30;100.00;-18170.72;5008403;28;20576;-81
2023/02/20 05:06:59;;;;;;;;;;;;;;;5.34;100.00;-18171.81;5004566;28;19921;-83
2023/02/20 05:09:24;;;;;;;;;;;;;;;5.35;100.00;-18171.94;4999444;28;19982;-82
2023/02/20 05:11:49;;;;;;;;;;;;;;;5.36;100.00;-18172.22;5004291;28;20011;-81
2023/02/20 05:14:15;;;;;;;;;;;;;;;5.38;100.00;-18172.78;5012809;28;20323;-82
2023/02/20 05:16:41;;;;;;;;;;;;;;;5.38;100.00;-18172.91;5006071;28;19961;-84
2023/02/20 05:19:07;;;;;;;;;;;;;;;5.39;100.00;-18173.06;5000355;28;19922;-82
2023/02/20 05:22:17;;;;;;;;;;;;;;;5.42;100.00;-18173.88;5012131;28;20322;-81
2023/02/20 05:24:18;;;;;;;;;;;;;;;5.43;100.00;-18174.16;5005788;28;19925;-83
2023/02/20 05:26:43;;;;;;;;;;;;;;;5.39;100.00;-18173.06;5018157;28;19917;-82
2023/02/20 05:29:11;;;;;;;;;;;;;;;5.40;100.00;-18173.47;5006647;28;19980;-81
2023/02/20 05:31:36;;;;;;;;;;;;;;;5.41;100.00;-18173.63;5006927;28;20004;-84
2023/02/20 05:34:01;;;;;;;;;;;;;;;5.43;100.00;-18174.28;5011217;28;20452;-80
2023/02/20 05:36:26;;;;;;;;;;;;;;;5.45;100.00;-18174.56;5020721;28;19953;-84
2023/02/20 05:38:52;;;;;;;;;;;;;;;5.44;100.00;-18174.44;5020552;28;19970;-82
2023/02/20 05:41:17;;;;;;;;;;;;;;;5.45;100.00;-18174.56;5009958;28;20024;-84
2023/02/20 05:43:43;;;;;;;;;;;;;;;5.45;100.00;-18174.72;5000087;28;20387;-80
2023/02/20 05:46:08;;;;;;;;;;;;;;;5.47;100.00;-18175.25;4999885;28;20013;-83
2023/02/20 05:48:34;;;;;;;;;;;;;;;5.49;100.00;-18175.69;5005162;28;20379;-82
2023/02/20 05:50:59;;;;;;;;;;;;;;;5.48;100.00;-18175.41;5013707;28;19932;-82
2023/02/20 05:53:28;;;;;;;;;;;;;;;5.53;100.00;-18176.78;5016606;28;19980;-84
2023/02/20 05:55:53;;;;;;;;;;;;;;;5.54;100.00;-18177.19;5011848;28;19929;-82
2023/02/20 05:58:18;;;;;;;;;;;;;;;5.54;100.00;-18177.06;5013241;28;19983;-86
2023/02/20 06:00:43;;;;;;;;;;;;;;;5.56;100.00;-18177.75;5002443;28;19919;-82
2023/02/20 06:03:09;;;;;;;;;;;;;;;5.52;100.00;-18176.63;5002881;28;19957;-81
2023/02/20 06:05:34;;;;;;;;;;;;;;;5.54;100.00;-18177.19;5034319;28;19968;-82
2023/02/20 06:08:00;;;;;;;;;;;;;;;5.54;100.00;-18177.19;5019568;28;19933;-82
2023/02/20 06:10:25;;;;;;;;;;;;;;;5.56;100.00;-18177.63;5005264;28;19961;-83
2023/02/20 06:12:50;;;;;;;;;;;;;;;5.58;100.00;-18178.16;5015831;28;19975;-82
2023/02/20 06:15:15;;;;;;;;;;;;;;;5.60;100.00;-18178.72;5035453;28;19918;-83
2023/02/20 06:17:41;;;;;;;;;;;;;;;5.61;100.00;-18179.13;5008123;28;19921;-83
2023/02/20 06:20:06;;;;;;;;;;;;;;;5.63;100.00;-18179.53;5021037;28;19917;-82
2023/02/20 06:22:31;;;;;;;;;;;;;;;5.68;100.00;-18180.78;5009277;28;19956;-83
2023/02/20 06:24:57;;;;;;;;;;;;;;;5.71;100.00;-18181.63;5013259;28;19957;-83
2023/02/20 06:27:22;;;;;;;;;;;;;;;5.74;100.00;-18182.44;5015522;28;19917;-81
2023/02/20 06:29:47;;;;;;;;;;;;;;;5.76;100.00;-18183.13;5021070;28;20390;-84
2023/02/20 06:32:13;;;;;;;;;;;;;;;5.79;100.00;-18183.81;5019574;28;19917;-80
2023/02/20 06:34:38;;;;;;;;;;;;;;;5.80;100.00;-18184.09;5021661;28;20306;-83
2023/02/20 06:37:03;;;;;;;;;;;;;;;5.86;100.00;-18185.88;5007168;28;19973;-83
2023/02/20 06:39:29;;;;;;;;;;;;;;;5.86;100.00;-18185.75;5005715;28;19921;-82
2023/02/20 06:41:55;;;;;;;;;;;;;;;5.86;100.00;-18185.88;5012593;28;19917;-81
2023/02/20 06:44:20;;;;;;;;;;;;;;;5.89;100.00;-18186.72;5012451;28;19917;-81
2023/02/20 06:46:45;;;;;;;;;;;;;;;5.90;100.00;-18186.84;5010453;28;19940;-82
2023/02/20 06:49:11;;;;;;;;;;;;;;;5.91;100.00;-18187.00;5008302;28;19928;-80
2023/02/20 06:51:36;;;;;;;;;;;;;;;5.93;100.00;-18187.69;5010824;28;20001;-82
2023/02/20 06:54:02;;;;;;;;;;;;;;;5.94;100.00;-18187.97;5010287;28;19925;-82
2023/02/20 06:56:29;;;;;;;;;;;;;;;5.95;100.00;-18188.22;5004382;28;20303;-82
2023/02/20 06:58:55;;;;;;;;;;;;;;;5.97;100.00;-18188.78;5015305;28;19926;-84
2023/02/20 07:01:21;;;;;;;;;;;;;;;5.98;100.00;-18188.94;5008502;28;19936;-83
2023/02/20 07:03:47;;;;;;;;;;;;;;;5.98;100.00;-18189.06;5012586;28;19922;-84
2023/02/20 07:06:13;;;;;;;;;;;;;;;6.02;100.00;-18190.16;5014017;28;19928;-83
2023/02/20 07:08:38;;;;;;;;;;;;;;;6.04;100.00;-18190.59;5017369;28;19970;-83
2023/02/20 07:11:03;;;;;;;;;;;;;;;6.06;100.00;-18191.13;5017296;28;19925;-83
2023/02/20 07:13:29;;;;;;;;;;;;;;;6.07;100.00;-18191.56;5008137;28;19930;-84
2023/02/20 07:15:54;;;;;;;;;;;;;;;6.07;100.00;-18191.56;5007993;28;20349;-81
2023/02/20 07:18:22;;;;;;;;;;;;;;;6.09;100.00;-18192.09;5019997;28;19929;-83
2023/02/20 07:20:48;;;;;;;;;;;;;;;6.07;100.00;-18191.56;5008380;28;19921;-83
2023/02/20 07:23:13;;;;;;;;;;;;;;;6.11;100.00;-18192.50;5019706;28;19918;-82
2023/02/20 07:25:38;;;;;;;;;;;;;;;6.14;100.00;-18193.19;5009593;28;19944;-83
2023/02/20 07:28:04;;;;;;;;;;;;;;;6.15;100.00;-18193.47;5031748;28;19965;-81
2023/02/20 07:30:29;;;;;;;;;;;;;;;6.14;100.00;-18193.34;5031381;28;19925;-82
2023/02/20 07:32:54;;;;;;;;;;;;;;;6.17;100.00;-18194.16;5025834;28;19933;-82
2023/02/20 07:35:19;;;;;;;;;;;;;;;6.19;100.00;-18194.72;5039266;28;20005;-82
2023/02/20 07:37:44;;;;;;;;;;;;;;;6.24;100.00;-18195.97;5034512;28;20019;-80
2023/02/20 07:40:10;;;;;;;;;;;;;;;6.25;100.00;-18196.38;5022653;28;21261;-83
2023/02/20 07:42:36;;;;;;;;;;;;;;;6.27;100.00;-18196.78;5025796;28;19928;-81
2023/02/20 07:45:01;;;;;;;;;;;;;;;6.29;100.00;-18197.34;5028635;28;20650;-81
2023/02/20 07:47:26;;;;;;;;;;;;;;;6.29;100.00;-18197.34;5028758;28;19918;-81
2023/02/20 07:49:51;;;;;;;;;;;;;;;6.33;100.00;-18198.59;5028017;28;19947;-80
2023/02/20 07:52:17;;;;;;;;;;;;;;;6.38;100.00;-18199.69;5031680;28;19932;-83
2023/02/20 07:54:42;;;;;;;;;;;;;;;6.40;100.00;-18200.25;5028056;28;19929;-82
2023/02/20 07:57:07;;;;;;;;;;;;;;;6.41;100.00;-18200.50;5027752;28;19989;-81
2023/02/20 07:59:32;;;;;;;;;;;;;;;6.43;100.00;-18201.19;5022099;28;19921;-80
2023/02/20 08:01:58;;;;;;;;;;;;;;;6.46;100.00;-18201.88;5020037;28;19921;-79
2023/02/20 08:04:23;;;;;;;;;;;;;;;6.46;100.00;-18202.03;5015131;28;19986;-83
2023/02/20 08:06:48;;;;;;;;;;;;;;;6.49;100.00;-18202.72;5017896;28;19926;-80
2023/02/20 08:09:13;;;;;;;;;;;;;;;6.50;100.00;-18203.00;5017760;28;19933;-82
2023/02/20 08:11:39;;;;;;;;;;;;;;;6.52;100.00;-18203.69;5018576;28;19964;-82
2023/02/20 08:14:04;;;;;;;;;;;;;;;6.54;100.00;-18204.09;5017527;28;19920;-80
2023/02/20 08:16:30;;;;;;;;;;;;;;;6.57;100.00;-18204.78;5021224;28;19932;-79
2023/02/20 08:18:55;;;;;;;;;;;;;;;6.58;100.00;-18205.19;5020909;28;19931;-82
2023/02/20 08:21:20;;;;;;;;;;;;;;;6.62;100.00;-18206.16;5008184;28;19954;-81
2023/02/20 08:23:46;;;;;;;;;;;;;;;6.62;100.00;-18206.31;5013788;28;19979;-80
2023/02/20 08:26:11;;;;;;;;;;;;;;;6.64;100.00;-18206.84;5011568;28;19992;-80
2023/02/20 08:28:37;;;;;;;;;;;;;;;6.67;100.00;-18207.53;5009088;28;20013;-83
2023/02/20 08:31:02;;;;;;;;;;;;;;;6.68;100.00;-18207.81;5010486;28;19996;-82
2023/02/20 08:33:27;;;;;;;;;;;;;;;6.68;100.00;-18207.97;5004108;28;20480;-80
2023/02/20 08:35:54;;;;;;;;;;;;;;;6.72;100.00;-18208.91;5010952;28;19937;-79
2023/02/20 08:38:30;;;;;;;;;;;;;;;6.74;100.00;-18209.59;5005452;28;19932;-81
2023/02/20 08:40:56;;;;;;;;;;;;;;;6.75;100.00;-18209.75;5008073;28;19972;-81
2023/02/20 08:43:21;;;;;;;;;;;;;;;6.79;100.00;-18210.84;5006428;28;20372;-80
2023/02/20 08:45:47;;;;;;;;;;;;;;;6.82;100.00;-18211.53;5007429;28;20448;-80
2023/02/20 08:48:12;;;;;;;;;;;;;;;6.81;100.00;-18211.41;5009506;28;19918;-82
2023/02/20 08:50:37;;;;;;;;;;;;;;;6.84;100.00;-18212.22;5006979;28;19922;-82
2023/02/20 08:53:03;;;;;;;;;;;;;;;6.86;100.00;-18212.78;5012784;28;19929;-81
2023/02/20 08:55:28;;;;;;;;;;;;;;;6.88;100.00;-18213.34;5012571;28;20001;-81
2023/02/20 08:57:54;;;;;;;;;;;;;;;6.89;100.00;-18213.59;5017014;28;20421;-81
2023/02/20 09:00:20;;;;;;;;;;;;;;;6.90;100.00;-18213.88;5009533;28;19948;-81
2023/02/20 09:02:46;;;;;;;;;;;;;;;6.92;100.00;-18214.44;5012036;28;20377;-80
2023/02/20 09:05:11;;;;;;;;;;;;;;;6.93;100.00;-18214.56;5008055;28;19947;-81
2023/02/20 09:07:36;;;;;;;;;;;;;;;6.92;100.00;-18214.44;5004420;28;19928;-82
2023/02/20 09:10:02;;;;;;;;;;;;;;;6.94;100.00;-18214.84;5010697;28;20697;-81
2023/02/20 09:12:27;;;;;;;;;;;;;;;6.97;100.00;-18215.69;5002784;28;19922;-80
2023/02/20 09:14:53;;;;;;;;;;;;;;;6.98;100.00;-18215.94;5011566;28;19965;-80
2023/02/20 09:17:18;;;;;;;;;;;;;;;7.03;100.00;-18217.19;5015195;28;19918;-80
2023/02/20 09:19:43;;;;;;;;;;;;;;;7.06;100.00;-18218.03;5007490;28;19922;-80
2023/02/20 09:22:08;;;;;;;;;;;;;;;7.07;100.00;-18218.44;5005818;28;20372;-82
2023/02/20 09:24:35;;;;;;;;;;;;;;;7.07;100.00;-18218.28;5006405;28;19922;-81
2023/02/20 09:27:01;;;;;;;;;;;;;;;7.08;100.00;-18218.72;5002880;28;20314;-81
2023/02/20 09:29:26;;;;;;;;;;;;;;;7.09;100.00;-18218.84;5011426;28;19918;-82
2023/02/20 09:31:51;;;;;;;;;;;;;;;7.14;100.00;-18220.22;5005794;28;19949;-81
2023/02/20 09:34:17;;;;;;;;;;;;;;;7.15;100.00;-18220.63;5019652;28;19941;-81
2023/02/20 09:36:42;;;;;;;;;;;;;;;7.17;100.00;-18221.19;5015160;28;20387;-82
2023/02/20 09:39:07;;;;;;;;;;;;;;;7.18;100.00;-18221.47;5004904;28;19929;-81
2023/02/20 09:41:52;;;;;;;;;;;;;;;7.21;100.00;-18222.16;5008297;28;19930;-81
2023/02/20 09:44:26;;;;;;;;;;;;;;;7.26;100.00;-18223.53;5008245;28;19918;-81
2023/02/20 09:46:52;;;;;;;;;;;;;;;7.26;100.00;-18223.41;5013897;28;19918;-82
2023/02/20 09:49:24;;;;;;;;;;;;;;;7.29;100.00;-18224.34;4996972;28;19922;-81
2023/02/20 09:51:55;;;;;;;;;;;;;;;7.30;100.00;-18224.63;4999822;28;19933;-80
2023/02/20 09:54:20;;;;;;;;;;;;;;;7.32;100.00;-18225.03;5006602;28;19925;-81
2023/02/20 09:56:49;;;;;;;;;;;;;;;7.33;100.00;-18225.47;5005948;28;19918;-80
2023/02/20 09:59:14;;;;;;;;;;;;;;;7.38;100.00;-18226.84;5006573;28;19918;-81
2023/02/20 10:01:48;;;;;;;;;;;;;;;7.39;100.00;-18227.13;5004052;28;19928;-79
2023/02/20 10:04:17;;;;;;;;;;;;;;;7.39;100.00;-18227.13;5012255;28;19921;-80
2023/02/20 10:06:43;;;;;;;;;;;;;;;7.39;100.00;-18227.13;5012674;28;19921;-82
2023/02/20 10:09:11;;;;;;;;;;;;;;;7.40;100.00;-18227.38;5013446;28;19918;-81
2023/02/20 10:11:53;;;;;;;;;;;;;;;7.40;100.00;-18227.38;5006916;28;19961;-82
2023/02/20 10:14:37;;;;;;;;;;;;;;;7.39;100.00;-18227.13;5003419;28;20387;-81
2023/02/20 10:17:12;;;;;;;;;;;;;;;7.40;100.00;-18227.38;4991894;28;19925;-80
2023/02/20 10:19:49;;;;;;;;;;;;;;;7.35;100.00;-18226.00;4999106;28;19918;-80
2023/02/20 10:22:19;;;;;;;;;;;;;;;7.38;100.00;-18226.69;5004400;28;19963;-80
2023/02/20 10:24:47;;;;;;;;;;;;;;;7.36;100.00;-18226.16;5000760;28;19926;-81
2023/02/20 10:27:16;;;;;;;;;;;;;;;7.34;100.00;-18225.59;4999651;28;19956;-82
2023/02/20 10:29:44;;;;;;;;;;;;;;;7.36;100.00;-18226.28;5000239;28;21515;-82
2023/02/20 10:32:12;;;;;;;;;;;;;;;7.36;100.00;-18226.28;4999782;28;20323;-80
2023/02/20 10:34:52;;;;;;;;;;;;;;;7.39;100.00;-18226.97;4997500;28;20298;-80
2023/02/20 10:37:20;;;;;;;;;;;;;;;7.38;100.00;-18226.84;5001203;28;19918;-80
2023/02/20 10:40:05;;;;;;;;;;;;;;;7.40;100.00;-18227.38;4995086;28;19926;-80
2023/02/20 10:42:57;;;;;;;;;;;;;;;7.37;100.00;-18226.56;4996114;28;19992;-81
2023/02/20 10:45:48;;;;;;;;;;;;;;;7.40;100.00;-18227.38;4996901;28;19969;-80
2023/02/20 10:48:14;;;;;;;;;;;;;;;7.39;100.00;-18226.97;4999632;28;19989;-81
2023/02/20 10:50:39;;;;;;;;;;;;;;;7.39;100.00;-18227.13;5003499;28;20327;-81
2023/02/20 10:53:07;;;;;;;;;;;;;;;7.42;100.00;-18227.78;5002958;28;20358;-80
2023/02/20 10:55:40;;;;;;;;;;;;;;;7.43;100.00;-18228.06;5003459;28;19925;-80
2023/02/20 10:58:11;;;;;;;;;;;;;;;7.41;100.00;-18227.66;5000437;28;19917;-81
2023/02/20 11:00:38;;;;;;;;;;;;;;;7.43;100.00;-18228.06;4998021;28;19973;-80
2023/02/20 11:03:27;;;;;;;;;;;;;;;7.45;100.00;-18228.63;4999886;28;19921;-80
2023/02/20 11:05:53;;;;;;;;;;;;;;;7.46;100.00;-18229.03;5003024;28;19922;-79
2023/02/20 11:08:19;;;;;;;;;;;;;;;7.46;100.00;-18229.03;4999742;28;20008;-82
2023/02/20 11:10:45;;;;;;;;;;;;;;;7.45;100.00;-18228.75;5000284;28;19926;-81
2023/02/20 11:13:14;;;;;;;;;;;;;;;7.49;100.00;-18229.59;4997797;28;19984;-82
2023/02/20 11:15:41;;;;;;;;;;;;;;;7.46;100.00;-18229.03;4999056;28;20311;-81
2023/02/20 11:18:16;;;;;;;;;;;;;;;7.46;100.00;-18228.91;4998655;28;19918;-82
2023/02/20 11:20:44;;;;;;;;;;;;;;;7.49;100.00;-18229.72;4996863;28;19918;-82
2023/02/20 11:23:30;;;;;;;;;;;;;;;7.51;100.00;-18230.13;4996971;28;19922;-80
2023/02/20 11:26:11;;;;;;;;;;;;;;;7.48;100.00;-18229.47;5005789;28;19926;-80
2023/02/20 11:28:38;;;;;;;;;;;;;;;7.52;100.00;-18230.41;5000496;28;19925;-82
2023/02/20 11:31:05;;;;;;;;;;;;;;;7.52;100.00;-18230.56;4997392;28;20319;-80
2023/02/20 11:33:33;;;;;;;;;;;;;;;7.50;100.00;-18229.88;5005533;28;19933;-83
2023/02/20 11:36:09;;;;;;;;;;;;;;;7.50;100.00;-18229.88;4997504;28;19948;-80
2023/02/20 11:38:35;;;;;;;;;;;;;;;7.52;100.00;-18230.56;4996298;28;20613;-81
2023/02/20 11:41:03;;;;;;;;;;;;;;;7.52;100.00;-18230.41;4996990;28;19929;-81
2023/02/20 11:43:44;;;;;;;;;;;;;;;7.48;100.00;-18229.47;4989332;28;20435;-81
2023/02/20 11:46:09;;;;;;;;;;;;;;;7.45;100.00;-18228.63;4998137;28;19991;-81
2023/02/20 11:48:34;;;;;;;;;;;;;;;7.45;100.00;-18228.63;4994562;28;19921;-81
2023/02/20 11:50:59;;;;;;;;;;;;;;;7.45;100.00;-18228.63;5004075;28;20380;-82
2023/02/20 11:53:28;;;;;;;;;;;;;;;7.44;100.00;-18228.50;4998723;28;20394;-81
2023/02/20 11:56:10;;;;;;;;;;;;;;;7.45;100.00;-18228.75;4997233;28;19929;-82
2023/02/20 11:58:35;;;;;;;;;;;;;;;7.44;100.00;-18228.50;4997335;28;19918;-81
2023/02/20 12:01:01;;;;;;;;;;;;;;;7.45;100.00;-18228.75;4999912;28;19922;-82
2023/02/20 12:03:28;;;;;;;;;;;;;;;7.45;100.00;-18228.75;5001943;28;19957;-82
2023/02/20 12:05:54;;;;;;;;;;;;;;;7.46;100.00;-18229.03;5002842;28;19929;-82
2023/02/20 12:08:27;;;;;;;;;;;;;;;7.44;100.00;-18228.50;4999099;28;20513;-83
2023/02/20 12:10:55;;;;;;;;;;;;;;;7.43;100.00;-18228.22;5001598;28;20003;-82
2023/02/20 12:13:20;;;;;;;;;;;;;;;7.44;100.00;-18228.50;4998862;28;20475;-81
2023/02/20 12:15:54;;;;;;;;;;;;;;;7.43;100.00;-18228.22;5000622;28;19928;-82
2023/02/20 12:18:35;;;;;;;;;;;;;;;7.43;100.00;-18228.06;5006611;28;20007;-81
2023/02/20 12:21:06;;;;;;;;;;;;;;;7.42;100.00;-18227.94;5000902;28;19963;-81
2023/02/20 12:23:31;;;;;;;;;;;;;;;7.41;100.00;-18227.66;4996989;28;20397;-82
2023/02/20 12:26:18;;;;;;;;;;;;;;;7.42;100.00;-18227.94;5002184;28;19918;-83
2023/02/20 12:28:43;;;;;;;;;;;;;;;7.43;100.00;-18228.06;4981880;28;19925;-82
2023/02/20 12:31:14;;;;;;;;;;;;;;;7.42;100.00;-18227.78;5007997;28;19990;-82
2023/02/20 12:33:42;;;;;;;;;;;;;;;7.41;100.00;-18227.66;4999732;28;19965;-82
2023/02/20 12:36:23;;;;;;;;;;;;;;;7.42;100.00;-18227.78;5003536;28;19932;-82
2023/02/20 12:38:52;;;;;;;;;;;;;;;7.42;100.00;-18227.94;4985021;28;19985;-82
2023/02/20 12:41:32;;;;;;;;;;;;;;;7.42;100.00;-18227.94;5002070;28;20438;-81
2023/02/20 12:44:04;;;;;;;;;;;;;;;7.43;100.00;-18228.22;4997642;28;20592;-81
2023/02/20 12:46:47;;;;;;;;;;;;;;;7.44;100.00;-18228.34;5001349;28;19929;-83
2023/02/20 12:49:16;;;;;;;;;;;;;;;7.46;100.00;-18229.03;5001352;28;19926;-82
2023/02/20 12:52:01;;;;;;;;;;;;;;;7.46;100.00;-18229.03;5000709;28;20635;-83
2023/02/20 12:54:49;;;;;;;;;;;;;;;7.48;100.00;-18229.47;4996515;28;19933;-82
2023/02/20 12:57:18;;;;;;;;;;;;;;;7.47;100.00;-18229.31;5001281;28;19922;-83